フォークランド諸島 の空港の天気 - METARとTAF

マウント・プレザント空軍基地 ( EGYP / MPN ) - フォークランド諸島 フォークランド諸島
飛行場実況気象(Metar)
観測時間04/26 12:50 FKST (04/26 15:50 UTC)
風向・風速北北西 16m/s 瞬間風速22m/s
視程10km以上
天気現象弱い雨
全天の8割程度の雲 雲底高度 150m
気温11℃
湿度94%
気圧1008hPa
METAREGYP 261550Z 34031G42KT 9999 -RA BKN005 11/10 Q1008 YLO1
過去の天気等 Google飛行場航空写真 Wunderground天気予報

過去48時間のMETAR

飛行場予報(TAF)
発表時間: 4/26 10:39 FKST (4/26 13:39 UTC)
予報対象時間: 26日12時 FKST ~ 27日6時 FKST
風向・風速北北西 13m/s 瞬間風速 18m/s
視程10km以上
少しの雲 雲底高度 150m
26日12時 FKST ~ 26日19時 FKST に一時的に
風向・風速北北西 18m/s 瞬間風速 25m/s
全天の8割程度の雲 雲底高度 240m
26日12時 FKST ~ 26日19時 FKST に 確率 40% で一時的に
風向・風速不定 4m/s
視程3000m
天気現象弱い雨霧雨
全天の4割程度の雲 雲底高度 120m
26日12時 FKST ~ 26日16時 FKST に 確率 30% で一時的に
全天の8割程度の積乱雲 雲底高度 2440m
26日19時 FKST ~ 26日22時 FKST に徐々に
風向・風速西 8m/s
26日19時 FKST ~ 27日6時 FKST に一時的に
視程3000m
天気現象弱い霧雨
全天の8割程度の雲 雲底高度 120m
27日1時 FKST ~ 27日6時 FKST に 確率 40% で一時的に
視程1500m
天気現象雨霧雨
全天の8割程度の雲 雲底高度 60m
TAF EGYP 261339Z 2615/2709 34025G35KT 9999 FEW005 520003
TEMPO 2615/2622 33035G48KT BKN008 530003
PROB40 TEMPO 2615/2622 VRB07KT 3000 -RADZ SCT004 560003
PROB30 TEMPO 2615/2619 BKN080CB
BECMG 2622/2701 27015KT 50////
TEMPO 2622/2709 3000 -DZ BKN004
PROB40 TEMPO 2704/2709 1500 RADZ BKN002